Time;durP1;ratioP1;P1;durP2;ratioP2;P2;SDS_P1;SDS_P2;PMS_P1;PMS_P2;Temp;Humidity;BMP_temperature;BMP_pressure;BME280_temperature;BME280_humidity;BME280_pressure;Samples;Min_cycle;Max_cycle;Signal;HPM_P1;HPM_P2
2023/09/16 00:00:54;;;;;;;7.65;6.72;;;;;;;;;;5069999;28;20047;-62
2023/09/16 00:03:19;;;;;;;8.70;7.77;;;;;;;;;;5073225;28;20432;-62
2023/09/16 00:05:44;;;;;;;9.57;7.30;;;;;;;;;;5070241;28;22488;-62
2023/09/16 00:08:09;;;;;;;7.80;6.83;;;;;;;;;;5071470;28;20044;-65
2023/09/16 00:10:34;;;;;;;6.40;5.60;;;;;;;;;;5070874;28;20466;-62
2023/09/16 00:13:00;;;;;;;6.53;5.87;;;;;;;;;;5072707;28;20081;-62
2023/09/16 00:15:26;;;;;;;8.35;7.50;;;;;;;;;;5071221;28;20115;-62
2023/09/16 00:17:51;;;;;;;7.13;5.53;;;;;;;;;;5072685;28;20123;-62
2023/09/16 00:20:16;;;;;;;7.53;5.97;;;;;;;;;;5070903;28;20447;-65
2023/09/16 00:22:45;;;;;;;7.25;6.57;;;;;;;;;;5072425;28;20008;-63
2023/09/16 00:25:10;;;;;;;9.60;6.50;;;;;;;;;;5071329;28;20502;-62
2023/09/16 00:27:36;;;;;;;6.47;5.88;;;;;;;;;;5072046;28;20020;-62
2023/09/16 00:30:03;;;;;;;5.35;4.85;;;;;;;;;;5072483;28;20130;-62
2023/09/16 00:32:28;;;;;;;4.93;4.43;;;;;;;;;;5070818;28;20037;-63
2023/09/16 00:34:53;;;;;;;5.83;5.23;;;;;;;;;;5071989;28;20413;-62
2023/09/16 00:37:18;;;;;;;9.25;8.15;;;;;;;;;;5070844;28;20041;-63
2023/09/16 00:39:44;;;;;;;7.37;6.67;;;;;;;;;;5071873;28;20499;-63
2023/09/16 00:42:09;;;;;;;7.60;6.90;;;;;;;;;;5071049;28;20056;-63
2023/09/16 00:44:34;;;;;;;9.40;8.57;;;;;;;;;;5071816;28;20499;-62
2023/09/16 00:46:59;;;;;;;10.75;9.65;;;;;;;;;;5070427;28;20466;-63
2023/09/16 00:49:28;;;;;;;11.88;9.82;;;;;;;;;;5072140;28;20044;-62
2023/09/16 00:51:54;;;;;;;12.07;10.60;;;;;;;;;;5068658;28;20033;-63
2023/09/16 00:54:19;;;;;;;7.53;6.88;;;;;;;;;;5071380;28;20399;-62
2023/09/16 00:56:44;;;;;;;8.05;5.47;;;;;;;;;;5068492;28;20492;-63
2023/09/16 00:59:10;;;;;;;5.10;4.70;;;;;;;;;;5071709;28;20052;-62
2023/09/16 01:01:37;;;;;;;8.05;6.53;;;;;;;;;;5069795;28;21185;-62
2023/09/16 01:04:03;;;;;;;9.20;7.88;;;;;;;;;;5070462;28;20119;-63
2023/09/16 01:06:30;;;;;;;10.15;9.07;;;;;;;;;;5069484;28;20043;-62
2023/09/16 01:08:55;;;;;;;9.13;8.23;;;;;;;;;;5070601;28;20486;-62
2023/09/16 01:11:24;;;;;;;13.60;10.60;;;;;;;;;;5070164;28;20068;-62
2023/09/16 01:13:50;;;;;;;;;;;;;;;;;;5072106;28;20025;-62
2023/09/16 01:16:21;;;;;;;10.15;8.52;;;;;;;;;;5069920;28;19958;-62
2023/09/16 01:18:50;;;;;;;8.35;7.50;;;;;;;;;;5070100;28;20075;-63
2023/09/16 01:21:15;;;;;;;10.00;9.00;;;;;;;;;;5069821;28;20036;-63
2023/09/16 01:23:42;;;;;;;15.13;10.98;;;;;;;;;;5071570;28;20035;-62
2023/09/16 01:26:07;;;;;;;10.55;9.55;;;;;;;;;;5069663;28;20488;-63
2023/09/16 01:28:32;;;;;;;9.63;6.70;;;;;;;;;;5070846;28;20055;-63
2023/09/16 01:30:58;;;;;;;10.43;9.50;;;;;;;;;;5070053;28;20455;-62
2023/09/16 01:33:34;;;;;;;15.63;10.15;;;;;;;;;;5070096;28;20423;-62
2023/09/16 01:36:02;;;;;;;10.18;9.07;;;;;;;;;;5068925;28;20361;-62
2023/09/16 01:38:28;;;;;;;10.32;9.40;;;;;;;;;;5070609;28;20048;-62
2023/09/16 01:40:54;;;;;;;13.10;10.80;;;;;;;;;;5069598;28;20403;-62
2023/09/16 01:43:19;;;;;;;11.20;10.07;;;;;;;;;;5071017;28;20031;-64
2023/09/16 01:45:45;;;;;;;13.82;11.85;;;;;;;;;;5069173;28;20074;-62
2023/09/16 01:48:11;;;;;;;14.73;10.85;;;;;;;;;;5070492;28;20124;-62
2023/09/16 01:50:36;;;;;;;11.25;9.93;;;;;;;;;;5068834;28;20036;-62
2023/09/16 01:53:02;;;;;;;12.88;11.55;;;;;;;;;;5071356;28;20099;-62
2023/09/16 01:55:27;;;;;;;11.88;10.68;;;;;;;;;;5069500;28;20411;-62
2023/09/16 01:57:52;;;;;;;12.93;11.43;;;;;;;;;;5070117;28;20024;-62
2023/09/16 02:00:18;;;;;;;14.13;10.63;;;;;;;;;;5069399;28;20039;-62
2023/09/16 02:02:43;;;;;;;16.67;12.20;;;;;;;;;;5070570;28;20439;-62
2023/09/16 02:05:08;;;;;;;11.70;10.53;;;;;;;;;;5068774;28;20021;-62
2023/09/16 02:07:34;;;;;;;14.77;11.52;;;;;;;;;;5069562;28;20090;-63
2023/09/16 02:09:59;;;;;;;20.15;11.63;;;;;;;;;;5070763;28;20021;-62
2023/09/16 02:12:24;;;;;;;12.38;11.07;;;;;;;;;;5068739;28;20025;-62
2023/09/16 02:14:51;;;;;;;13.27;12.03;;;;;;;;;;5070387;28;20085;-62
2023/09/16 02:17:17;;;;;;;13.27;10.57;;;;;;;;;;5067711;28;20715;-63
2023/09/16 02:19:42;;;;;;;14.82;11.95;;;;;;;;;;5053896;28;20065;-68
2023/09/16 02:22:07;;;;;;;11.68;10.40;;;;;;;;;;5069082;28;20044;-61
2023/09/16 02:24:32;;;;;;;16.40;14.63;;;;;;;;;;5069993;28;20494;-62
2023/09/16 02:26:58;;;;;;;14.80;13.20;;;;;;;;;;5041428;28;20101;-61
2023/09/16 02:29:23;;;;;;;16.48;14.82;;;;;;;;;;5030539;28;20424;-62
2023/09/16 02:31:48;;;;;;;15.57;12.70;;;;;;;;;;5042855;28;20068;-60
2023/09/16 02:34:13;;;;;;;17.10;13.57;;;;;;;;;;5049976;28;20099;-62
2023/09/16 02:36:39;;;;;;;21.97;11.60;;;;;;;;;;5060768;28;20099;-61
2023/09/16 02:39:04;;;;;;;21.93;12.93;;;;;;;;;;5070244;28;20060;-62
2023/09/16 02:41:30;;;;;;;18.97;17.07;;;;;;;;;;5068126;28;20454;-63
2023/09/16 02:43:55;;;;;;;19.67;16.70;;;;;;;;;;5070242;28;20422;-62
2023/09/16 02:46:20;;;;;;;16.57;14.90;;;;;;;;;;5068008;28;20056;-62
2023/09/16 02:48:45;;;;;;;16.80;14.25;;;;;;;;;;5069851;28;20082;-61
2023/09/16 02:51:11;;;;;;;23.93;16.63;;;;;;;;;;5068836;28;20380;-62
2023/09/16 02:53:37;;;;;;;21.30;15.88;;;;;;;;;;5070004;28;20419;-63
2023/09/16 02:56:03;;;;;;;17.50;15.00;;;;;;;;;;5064205;28;20043;-62
2023/09/16 02:58:28;;;;;;;14.20;12.52;;;;;;;;;;5050052;28;20476;-62
2023/09/16 03:00:53;;;;;;;17.63;14.15;;;;;;;;;;5054857;28;20039;-62
2023/09/16 03:03:19;;;;;;;18.00;16.00;;;;;;;;;;5069417;28;20024;-73
2023/09/16 03:05:45;;;;;;;16.25;14.52;;;;;;;;;;5068027;28;20461;-62
2023/09/16 03:08:11;;;;;;;17.15;15.35;;;;;;;;;;5068503;28;20020;-63
2023/09/16 03:10:36;;;;;;;25.73;15.18;;;;;;;;;;5068016;28;20403;-62
2023/09/16 03:13:01;;;;;;;18.38;13.75;;;;;;;;;;5070289;28;20035;-62
2023/09/16 03:15:27;;;;;;;20.37;16.67;;;;;;;;;;5068141;28;20040;-62
2023/09/16 03:17:52;;;;;;;23.55;19.10;;;;;;;;;;5070506;28;20491;-62
2023/09/16 03:20:17;;;;;;;19.37;17.33;;;;;;;;;;5072456;28;20541;-62
2023/09/16 03:22:42;;;;;;;18.20;16.27;;;;;;;;;;5073666;28;20005;-62
2023/09/16 03:25:07;;;;;;;19.57;17.40;;;;;;;;;;5070432;28;20529;-62
2023/09/16 03:27:33;;;;;;;24.60;16.83;;;;;;;;;;5058383;28;20447;-63
2023/09/16 03:29:58;;;;;;;18.02;16.10;;;;;;;;;;5053539;28;20463;-65
2023/09/16 03:32:27;;;;;;;16.03;14.33;;;;;;;;;;5072416;28;20056;-63
2023/09/16 03:34:52;;;;;;;16.02;13.32;;;;;;;;;;5073560;28;20019;-62
2023/09/16 03:37:17;;;;;;;18.77;16.17;;;;;;;;;;5058936;28;20133;-64
2023/09/16 03:39:42;;;;;;;18.83;16.77;;;;;;;;;;5053284;28;20454;-63
2023/09/16 03:42:08;;;;;;;16.92;14.68;;;;;;;;;;5068094;28;20228;-63
2023/09/16 03:44:33;;;;;;;21.55;18.35;;;;;;;;;;5073208;28;20020;-64
2023/09/16 03:46:58;;;;;;;21.27;17.70;;;;;;;;;;5071565;28;20063;-63
2023/09/16 03:49:23;;;;;;;25.17;18.15;;;;;;;;;;5072442;28;20032;-62
2023/09/16 03:51:48;;;;;;;22.67;19.55;;;;;;;;;;5071124;28;20044;-60
2023/09/16 03:54:14;;;;;;;25.50;20.53;;;;;;;;;;5073308;28;20020;-61
2023/09/16 03:56:39;;;;;;;23.13;17.10;;;;;;;;;;5070714;28;20040;-62
2023/09/16 03:59:04;;;;;;;21.87;18.17;;;;;;;;;;5073096;28;20426;-62
2023/09/16 04:01:29;;;;;;;21.23;16.57;;;;;;;;;;5071476;28;20135;-63
2023/09/16 04:03:55;;;;;;;18.23;16.30;;;;;;;;;;5071829;28;20043;-63
2023/09/16 04:06:20;;;;;;;19.00;15.75;;;;;;;;;;5063039;28;20041;-63
2023/09/16 04:08:45;;;;;;;19.88;15.02;;;;;;;;;;5071145;28;20016;-65
2023/09/16 04:11:11;;;;;;;19.92;16.70;;;;;;;;;;5071083;28;20035;-61
2023/09/16 04:13:36;;;;;;;18.92;16.80;;;;;;;;;;5071659;28;20090;-60
2023/09/16 04:16:01;;;;;;;19.70;15.60;;;;;;;;;;5070332;28;20056;-60
2023/09/16 04:18:26;;;;;;;17.88;16.02;;;;;;;;;;5072018;28;20035;-60
2023/09/16 04:20:55;;;;;;;17.05;15.45;;;;;;;;;;5071249;28;20055;-60
2023/09/16 04:23:20;;;;;;;18.90;15.52;;;;;;;;;;5062420;28;20384;-60
2023/09/16 04:25:45;;;;;;;17.95;15.18;;;;;;;;;;5061711;28;20039;-60
2023/09/16 04:28:11;;;;;;;19.90;17.75;;;;;;;;;;5064357;28;20487;-60
2023/09/16 04:30:49;;;;;;;19.80;16.60;;;;;;;;;;5054328;28;20033;-60
2023/09/16 04:33:14;;;;;;;22.50;18.00;;;;;;;;;;5072507;28;20023;-60
2023/09/16 04:35:46;;;;;;;20.20;18.10;;;;;;;;;;5070420;28;20501;-60
2023/09/16 04:38:12;;;;;;;28.38;21.65;;;;;;;;;;5071958;28;20538;-60
2023/09/16 04:40:38;;;;;;;30.00;21.88;;;;;;;;;;5070120;28;20117;-60
2023/09/16 04:43:03;;;;;;;23.30;18.20;;;;;;;;;;5072015;28;20464;-60
2023/09/16 04:45:29;;;;;;;20.63;17.35;;;;;;;;;;5067442;28;20376;-60
2023/09/16 04:47:57;;;;;;;23.38;17.98;;;;;;;;;;5071934;28;20424;-65
2023/09/16 04:50:22;;;;;;;19.40;16.90;;;;;;;;;;5069900;28;20048;-60
2023/09/16 04:52:47;;;;;;;22.15;18.70;;;;;;;;;;5063832;28;20440;-60
2023/09/16 04:55:14;;;;;;;22.45;18.08;;;;;;;;;;5057056;28;20104;-59
2023/09/16 04:57:39;;;;;;;22.33;16.17;;;;;;;;;;5068862;28;20078;-60
2023/09/16 05:00:05;;;;;;;20.33;15.63;;;;;;;;;;5065697;28;20020;-60
2023/09/16 05:02:32;;;;;;;20.27;18.02;;;;;;;;;;5055249;28;20973;-60
2023/09/16 05:04:57;;;;;;;19.30;17.20;;;;;;;;;;5059972;28;20017;-59
2023/09/16 05:07:22;;;;;;;19.38;16.23;;;;;;;;;;5068319;28;20086;-60
2023/09/16 05:09:47;;;;;;;21.60;17.08;;;;;;;;;;5068892;28;20466;-60
2023/09/16 05:12:13;;;;;;;19.10;16.85;;;;;;;;;;5069701;28;20025;-60
2023/09/16 05:14:38;;;;;;;20.10;16.88;;;;;;;;;;5070114;28;20032;-60
2023/09/16 05:17:03;;;;;;;22.35;17.05;;;;;;;;;;5068576;28;20035;-60
2023/09/16 05:19:28;;;;;;;18.75;16.63;;;;;;;;;;5069313;28;20028;-60
2023/09/16 05:21:54;;;;;;;19.83;17.77;;;;;;;;;;5069402;28;20135;-60
2023/09/16 05:24:20;;;;;;;24.88;17.10;;;;;;;;;;5069496;28;20351;-60
2023/09/16 05:26:45;;;;;;;19.95;15.52;;;;;;;;;;5069391;28;20036;-60
2023/09/16 05:29:10;;;;;;;21.23;14.37;;;;;;;;;;5071195;28;20020;-60
2023/09/16 05:31:35;;;;;;;19.17;16.47;;;;;;;;;;5067272;28;20470;-59
2023/09/16 05:34:01;;;;;;;20.30;18.23;;;;;;;;;;5070461;28;20439;-60
2023/09/16 05:36:27;;;;;;;19.58;15.80;;;;;;;;;;5069585;28;20032;-60
2023/09/16 05:38:52;;;;;;;24.52;17.30;;;;;;;;;;5069074;28;20082;-59
2023/09/16 05:41:17;;;;;;;19.17;17.33;;;;;;;;;;5068369;28;20121;-60
2023/09/16 05:43:42;;;;;;;28.20;19.20;;;;;;;;;;5070696;28;20513;-59
2023/09/16 05:46:08;;;;;;;21.02;18.50;;;;;;;;;;5065136;28;20036;-59
2023/09/16 05:48:33;;;;;;;23.33;19.23;;;;;;;;;;5069447;28;20202;-59
2023/09/16 05:50:58;;;;;;;22.50;20.10;;;;;;;;;;5061721;28;20383;-59
2023/09/16 05:53:24;;;;;;;28.58;20.40;;;;;;;;;;5047688;28;20387;-62
2023/09/16 05:55:49;;;;;;;26.15;19.85;;;;;;;;;;5054308;28;20115;-62
2023/09/16 05:58:14;;;;;;;23.55;20.52;;;;;;;;;;5070506;28;20038;-63
2023/09/16 06:00:40;;;;;;;25.58;20.77;;;;;;;;;;5067243;28;20060;-63
2023/09/16 06:03:05;;;;;;;26.20;21.63;;;;;;;;;;5070337;28;20349;-59
2023/09/16 06:05:30;;;;;;;20.15;17.98;;;;;;;;;;5068395;28;20060;-59
2023/09/16 06:07:55;;;;;;;32.47;20.00;;;;;;;;;;5068806;28;20028;-60
2023/09/16 06:10:20;;;;;;;21.70;17.87;;;;;;;;;;5068879;28;20012;-59
2023/09/16 06:12:46;;;;;;;21.33;16.97;;;;;;;;;;5061089;28;20021;-58
2023/09/16 06:15:11;;;;;;;21.55;17.83;;;;;;;;;;5050071;28;20045;-59
2023/09/16 06:17:36;;;;;;;19.33;17.37;;;;;;;;;;5069522;28;20496;-58
2023/09/16 06:20:02;;;;;;;20.60;15.40;;;;;;;;;;5069387;28;20533;-58
2023/09/16 06:22:27;;;;;;;19.48;15.50;;;;;;;;;;5067715;28;20079;-58
2023/09/16 06:24:52;;;;;;;18.05;15.40;;;;;;;;;;5068567;28;20066;-67
2023/09/16 06:27:17;;;;;;;17.92;13.60;;;;;;;;;;5067963;28;20216;-59
2023/09/16 06:29:43;;;;;;;16.52;14.52;;;;;;;;;;5068823;28;20009;-58
2023/09/16 06:32:09;;;;;;;16.20;14.60;;;;;;;;;;5066302;28;20438;-59
2023/09/16 06:34:34;;;;;;;16.45;14.02;;;;;;;;;;5069508;28;20024;-58
2023/09/16 06:37:00;;;;;;;14.65;12.07;;;;;;;;;;5068327;28;20445;-70
2023/09/16 06:39:25;;;;;;;13.82;12.25;;;;;;;;;;5069483;28;20055;-58
2023/09/16 06:41:51;;;;;;;12.43;11.15;;;;;;;;;;5055342;28;20040;-58
2023/09/16 06:44:16;;;;;;;15.88;14.02;;;;;;;;;;5051675;28;20025;-59
2023/09/16 06:46:43;;;;;;;15.30;11.57;;;;;;;;;;5067915;28;20041;-58
2023/09/16 06:49:08;;;;;;;11.25;10.02;;;;;;;;;;5070035;28;20431;-58
2023/09/16 06:51:33;;;;;;;14.93;11.63;;;;;;;;;;5068376;28;20046;-58
2023/09/16 06:53:58;;;;;;;11.00;9.80;;;;;;;;;;5069012;28;20535;-59
2023/09/16 06:56:23;;;;;;;17.23;10.90;;;;;;;;;;5059585;28;20048;-59
2023/09/16 06:58:49;;;;;;;10.20;9.30;;;;;;;;;;5069569;28;20028;-60
2023/09/16 07:01:14;;;;;;;13.05;9.93;;;;;;;;;;5068048;28;20410;-58
2023/09/16 07:03:39;;;;;;;15.80;10.20;;;;;;;;;;5069320;28;20074;-58
2023/09/16 07:06:04;;;;;;;17.30;11.53;;;;;;;;;;5066783;28;20037;-59
2023/09/16 07:08:30;;;;;;;9.70;8.70;;;;;;;;;;5048274;28;20446;-59
2023/09/16 07:10:55;;;;;;;14.67;9.83;;;;;;;;;;5063626;28;20029;-59
2023/09/16 07:13:20;;;;;;;10.57;9.57;;;;;;;;;;5069895;28;20052;-67
2023/09/16 07:15:51;;;;;;;10.27;9.27;;;;;;;;;;5058567;28;20040;-59
2023/09/16 07:18:16;;;;;;;11.82;9.07;;;;;;;;;;5061216;28;20543;-59
2023/09/16 07:20:42;;;;;;;11.73;10.63;;;;;;;;;;5060490;28;20048;-59
2023/09/16 07:23:07;;;;;;;11.30;9.77;;;;;;;;;;5048505;28;20498;-59
2023/09/16 07:25:32;;;;;;;10.57;8.48;;;;;;;;;;5050021;28;20036;-59
2023/09/16 07:27:57;;;;;;;10.07;8.50;;;;;;;;;;5069586;28;20029;-59
2023/09/16 07:30:22;;;;;;;15.13;9.50;;;;;;;;;;5067946;28;20427;-59
2023/09/16 07:32:49;;;;;;;9.33;8.50;;;;;;;;;;5067063;28;20450;-59
2023/09/16 07:35:15;;;;;;;11.32;8.50;;;;;;;;;;5067276;28;20529;-59
2023/09/16 07:37:40;;;;;;;9.32;7.13;;;;;;;;;;5067265;28;20119;-59
2023/09/16 07:40:05;;;;;;;8.53;7.63;;;;;;;;;;5068515;28;20485;-62
2023/09/16 07:42:32;;;;;;;12.73;8.55;;;;;;;;;;5066020;28;20821;-59
2023/09/16 07:44:57;;;;;;;10.35;7.35;;;;;;;;;;5060287;28;20044;-59
2023/09/16 07:47:22;;;;;;;8.30;7.38;;;;;;;;;;5066151;28;20037;-59
2023/09/16 07:49:47;;;;;;;10.03;6.60;;;;;;;;;;5069103;28;20511;-59
2023/09/16 07:52:12;;;;;;;8.33;7.53;;;;;;;;;;5067299;28;20040;-59
2023/09/16 07:54:38;;;;;;;10.67;8.73;;;;;;;;;;5068843;28;20435;-59
2023/09/16 07:57:03;;;;;;;12.03;7.57;;;;;;;;;;5067676;28;20550;-59
2023/09/16 07:59:28;;;;;;;9.68;8.18;;;;;;;;;;5067626;28;20013;-57
2023/09/16 08:01:53;;;;;;;13.63;6.43;;;;;;;;;;5067510;28;20041;-58
2023/09/16 08:04:19;;;;;;;9.13;7.37;;;;;;;;;;5069528;28;20464;-58
2023/09/16 08:06:44;;;;;;;9.20;6.60;;;;;;;;;;5069762;28;20905;-65
2023/09/16 08:09:09;;;;;;;8.00;5.60;;;;;;;;;;5072206;28;20024;-58
2023/09/16 08:11:34;;;;;;;12.57;7.43;;;;;;;;;;5071065;28;20036;-58
2023/09/16 08:13:59;;;;;;;8.32;6.65;;;;;;;;;;5071824;28;20926;-58
2023/09/16 08:16:24;;;;;;;10.20;7.97;;;;;;;;;;5051293;28;20377;-58
2023/09/16 08:18:50;;;;;;;8.67;6.67;;;;;;;;;;5052500;28;20112;-58
2023/09/16 08:21:15;;;;;;;7.43;6.45;;;;;;;;;;5050708;28;20100;-58
2023/09/16 08:23:41;;;;;;;7.35;6.10;;;;;;;;;;5050516;28;20085;-58
2023/09/16 08:26:06;;;;;;;5.38;4.88;;;;;;;;;;5041342;28;20033;-64
2023/09/16 08:28:31;;;;;;;7.70;5.47;;;;;;;;;;5051927;28;20059;-58
2023/09/16 08:30:56;;;;;;;6.13;5.53;;;;;;;;;;5050730;28;20451;-58
2023/09/16 08:33:22;;;;;;;6.63;5.95;;;;;;;;;;5052465;28;20021;-58
2023/09/16 08:35:47;;;;;;;13.13;7.30;;;;;;;;;;5055746;28;20039;-58
2023/09/16 08:38:12;;;;;;;9.05;6.78;;;;;;;;;;5071547;28;20422;-58
2023/09/16 08:40:38;;;;;;;7.72;5.65;;;;;;;;;;5070500;28;20039;-61
2023/09/16 08:43:09;;;;;;;7.15;5.47;;;;;;;;;;5072117;28;20048;-58
2023/09/16 08:45:38;;;;;;;8.43;6.75;;;;;;;;;;5070135;28;20063;-58
2023/09/16 08:48:05;;;;;;;9.90;6.95;;;;;;;;;;5072085;28;20017;-58
2023/09/16 08:50:31;;;;;;;11.38;6.68;;;;;;;;;;5070224;28;20032;-58
2023/09/16 08:53:03;;;;;;;7.40;6.13;;;;;;;;;;5071934;28;20416;-58
2023/09/16 08:55:29;;;;;;;9.00;7.20;;;;;;;;;;5070251;28;20090;-58
2023/09/16 08:57:54;;;;;;;9.50;6.30;;;;;;;;;;5071693;28;20088;-58
2023/09/16 09:00:19;;;;;;;11.63;8.57;;;;;;;;;;5069003;28;20108;-58
2023/09/16 09:02:45;;;;;;;9.57;7.15;;;;;;;;;;5071333;28;20020;-58
2023/09/16 09:05:11;;;;;;;13.02;7.93;;;;;;;;;;5068950;28;20013;-57
2023/09/16 09:07:39;;;;;;;7.97;6.15;;;;;;;;;;5071212;28;20066;-58
2023/09/16 09:10:04;;;;;;;7.25;6.28;;;;;;;;;;5071361;28;20020;-58
2023/09/16 09:12:30;;;;;;;9.15;7.18;;;;;;;;;;5069800;28;20059;-58
2023/09/16 09:14:55;;;;;;;7.60;6.20;;;;;;;;;;5070796;28;20028;-58
2023/09/16 09:17:22;;;;;;;8.40;5.90;;;;;;;;;;5069062;28;20159;-61
2023/09/16 09:19:47;;;;;;;7.20;5.80;;;;;;;;;;5070860;28;20021;-58
2023/09/16 09:22:13;;;;;;;5.95;5.35;;;;;;;;;;5066346;28;20040;-58
2023/09/16 09:24:38;;;;;;;7.80;5.53;;;;;;;;;;5069067;28;20376;-58
2023/09/16 09:27:03;;;;;;;6.43;5.75;;;;;;;;;;5069640;28;20856;-58
2023/09/16 09:29:29;;;;;;;8.25;6.28;;;;;;;;;;5067946;28;20035;-58
2023/09/16 09:31:54;;;;;;;9.38;5.13;;;;;;;;;;5068722;28;20058;-58
2023/09/16 09:34:19;;;;;;;6.40;4.82;;;;;;;;;;5068123;28;20025;-58
2023/09/16 09:36:48;;;;;;;13.53;6.10;;;;;;;;;;5067450;28;20036;-58
2023/09/16 09:39:13;;;;;;;6.95;6.20;;;;;;;;;;5071164;28;20071;-57
2023/09/16 09:41:49;;;;;;;7.00;5.53;;;;;;;;;;5069164;28;20072;-58
2023/09/16 09:44:14;;;;;;;6.07;5.22;;;;;;;;;;5070320;28;20020;-59
2023/09/16 09:46:40;;;;;;;6.47;4.93;;;;;;;;;;5069256;28;20102;-73
2023/09/16 09:49:05;;;;;;;10.40;5.57;;;;;;;;;;5071013;28;20445;-59
2023/09/16 09:51:31;;;;;;;7.72;5.47;;;;;;;;;;5069045;28;20407;-59
2023/09/16 09:53:56;;;;;;;6.68;5.00;;;;;;;;;;5071105;28;20056;-60
2023/09/16 09:56:21;;;;;;;11.32;5.53;;;;;;;;;;5068706;28;20579;-59
2023/09/16 09:58:46;;;;;;;8.50;6.33;;;;;;;;;;5070198;28;20028;-59
2023/09/16 10:01:12;;;;;;;7.70;6.23;;;;;;;;;;5069389;28;20036;-59
2023/09/16 10:03:37;;;;;;;5.20;4.70;;;;;;;;;;5070511;28;20328;-59
2023/09/16 10:06:15;;;;;;;5.37;4.90;;;;;;;;;;5068447;28;20036;-59
2023/09/16 10:08:40;;;;;;;;;;;;;;;;;;5071046;28;20431;-59
2023/09/16 10:11:05;;;;;;;4.73;3.77;;;;;;;;;;5068710;28;19969;-59
2023/09/16 10:13:31;;;;;;;6.93;4.17;;;;;;;;;;5068663;28;20458;-59
2023/09/16 10:16:00;;;;;;;4.88;4.07;;;;;;;;;;5068216;28;20067;-59
2023/09/16 10:18:25;;;;;;;5.50;4.53;;;;;;;;;;5070157;28;20016;-60
2023/09/16 10:20:50;;;;;;;5.57;4.15;;;;;;;;;;5067465;28;20102;-60
2023/09/16 10:23:16;;;;;;;4.63;3.67;;;;;;;;;;5069435;28;20016;-59
2023/09/16 10:25:41;;;;;;;5.13;4.43;;;;;;;;;;5068438;28;20046;-60
2023/09/16 10:28:07;;;;;;;4.87;3.00;;;;;;;;;;5066790;28;20459;-69
2023/09/16 10:30:33;;;;;;;4.13;3.40;;;;;;;;;;5067836;28;21102;-59
2023/09/16 10:33:04;;;;;;;4.13;3.53;;;;;;;;;;5069804;28;20032;-59
2023/09/16 10:35:29;;;;;;;3.30;3.00;;;;;;;;;;5059290;28;20464;-59
2023/09/16 10:37:55;;;;;;;4.63;4.22;;;;;;;;;;5066579;28;20059;-59
2023/09/16 10:40:21;;;;;;;5.53;3.97;;;;;;;;;;5067693;28;20408;-59
2023/09/16 10:42:47;;;;;;;4.95;3.60;;;;;;;;;;5070096;28;20090;-59
2023/09/16 10:45:14;;;;;;;3.53;3.22;;;;;;;;;;5062144;28;20413;-61
2023/09/16 10:47:40;;;;;;;3.58;3.22;;;;;;;;;;5062331;28;20447;-59
2023/09/16 10:50:05;;;;;;;3.67;3.38;;;;;;;;;;5050140;28;20021;-59
2023/09/16 10:52:40;;;;;;;5.53;3.33;;;;;;;;;;5053698;28;20044;-60
2023/09/16 10:55:08;;;;;;;5.10;2.92;;;;;;;;;;5070353;28;20099;-60
2023/09/16 10:57:33;;;;;;;;;;;;;;;;;;5047812;28;20131;-59
2023/09/16 11:00:01;;;;;;;52.15;9.23;;;;;;;;;;5049554;28;19991;-59
2023/09/16 11:02:45;;;;;;;4.57;4.18;;;;;;;;;;5067378;28;20068;-60
2023/09/16 11:05:10;;;;;;;4.25;3.85;;;;;;;;;;5065554;28;20052;-59
2023/09/16 11:07:36;;;;;;;3.37;3.07;;;;;;;;;;5037253;28;20076;-59
2023/09/16 11:10:03;;;;;;;3.67;3.35;;;;;;;;;;5049851;28;20555;-60
2023/09/16 11:12:29;;;;;;;5.57;3.72;;;;;;;;;;5067668;28;20040;-60
2023/09/16 11:14:54;;;;;;;4.45;3.45;;;;;;;;;;5069650;28;20122;-59
2023/09/16 11:17:21;;;;;;;8.43;3.95;;;;;;;;;;5068062;28;20040;-60
2023/09/16 11:19:46;;;;;;;5.63;3.80;;;;;;;;;;5069161;28;20379;-59
2023/09/16 11:22:12;;;;;;;5.27;3.73;;;;;;;;;;5066809;28;20029;-59
2023/09/16 11:24:37;;;;;;;4.18;3.78;;;;;;;;;;5065597;28;20032;-59
2023/09/16 11:27:03;;;;;;;5.93;4.40;;;;;;;;;;5063682;28;20028;-60
2023/09/16 11:29:29;;;;;;;5.50;3.92;;;;;;;;;;5067619;28;20463;-59
2023/09/16 11:31:55;;;;;;;5.88;4.25;;;;;;;;;;5068023;28;20044;-59
2023/09/16 11:34:21;;;;;;;3.78;3.47;;;;;;;;;;5069426;28;20024;-60
2023/09/16 11:36:53;;;;;;;5.35;3.17;;;;;;;;;;5067232;28;20029;-60
2023/09/16 11:39:24;;;;;;;4.97;3.80;;;;;;;;;;5071349;28;20435;-60
2023/09/16 11:41:50;;;;;;;6.97;4.57;;;;;;;;;;5071349;28;20066;-60
2023/09/16 11:44:15;;;;;;;4.82;3.38;;;;;;;;;;5073142;28;20471;-60
2023/09/16 11:46:40;;;;;;;3.22;2.90;;;;;;;;;;5067104;28;20029;-60
2023/09/16 11:49:06;;;;;;;3.97;3.67;;;;;;;;;;5063339;28;20013;-60
2023/09/16 11:51:32;;;;;;;5.05;3.60;;;;;;;;;;5071654;28;20041;-58
2023/09/16 11:53:57;;;;;;;6.25;4.60;;;;;;;;;;5070053;28;20131;-60
2023/09/16 11:56:24;;;;;;;3.60;3.30;;;;;;;;;;5064733;28;20546;-59
2023/09/16 11:58:49;;;;;;;6.95;3.70;;;;;;;;;;5055381;28;20035;-59
2023/09/16 12:01:22;;;;;;;9.27;4.32;;;;;;;;;;5066773;28;20037;-59
2023/09/16 12:03:48;;;;;;;4.32;3.72;;;;;;;;;;5072257;28;20027;-59
2023/09/16 12:06:14;;;;;;;8.82;3.50;;;;;;;;;;5071139;28;20115;-59
2023/09/16 12:08:40;;;;;;;3.78;3.42;;;;;;;;;;5072902;28;20059;-58
2023/09/16 12:11:06;;;;;;;5.05;3.10;;;;;;;;;;5070850;28;20518;-58
2023/09/16 12:13:31;;;;;;;6.40;5.38;;;;;;;;;;5069061;28;20056;-58
2023/09/16 12:15:58;;;;;;;6.50;3.40;;;;;;;;;;5061346;28;20039;-58
2023/09/16 12:18:23;;;;;;;4.90;3.70;;;;;;;;;;5071292;28;20028;-59
2023/09/16 12:20:48;;;;;;;6.82;3.97;;;;;;;;;;5070841;28;20870;-59
2023/09/16 12:23:16;;;;;;;4.03;3.73;;;;;;;;;;5072782;28;20016;-59
2023/09/16 12:25:42;;;;;;;7.25;4.20;;;;;;;;;;5070137;28;20809;-59
2023/09/16 12:28:10;;;;;;;6.72;3.92;;;;;;;;;;5059987;28;20017;-59
2023/09/16 12:30:47;;;;;;;7.95;4.35;;;;;;;;;;5055413;28;20037;-59
2023/09/16 12:33:12;;;;;;;4.38;3.97;;;;;;;;;;5072145;28;20051;-59
2023/09/16 12:35:40;;;;;;;6.68;3.50;;;;;;;;;;5061882;28;20056;-59
2023/09/16 12:38:06;;;;;;;5.15;4.18;;;;;;;;;;5070863;28;20409;-69
2023/09/16 12:40:32;;;;;;;4.90;3.13;;;;;;;;;;5069765;28;20127;-59
2023/09/16 12:42:57;;;;;;;5.50;3.63;;;;;;;;;;5072071;28;20012;-59
2023/09/16 12:45:22;;;;;;;4.77;3.60;;;;;;;;;;5069824;28;20464;-59
2023/09/16 12:47:49;;;;;;;4.53;4.13;;;;;;;;;;5071945;28;20490;-59
2023/09/16 12:50:14;;;;;;;5.90;3.72;;;;;;;;;;5062851;28;20697;-59
2023/09/16 12:52:39;;;;;;;6.87;3.80;;;;;;;;;;5070192;28;20016;-59
2023/09/16 12:55:09;;;;;;;5.80;3.33;;;;;;;;;;5071894;28;20510;-60
2023/09/16 12:57:35;;;;;;;4.70;4.00;;;;;;;;;;5070461;28;20447;-60
2023/09/16 13:00:03;;;;;;;7.50;4.10;;;;;;;;;;5071939;28;20055;-59
2023/09/16 13:02:28;;;;;;;;;;;;;;;;;;5071030;28;20033;-59
2023/09/16 13:05:15;;;;;;;4.05;3.58;;;;;;;;;;5072044;28;19904;-59
2023/09/16 13:07:40;;;;;;;9.05;6.07;;;;;;;;;;5070216;28;20421;-59
2023/09/16 13:10:07;;;;;;;4.37;4.00;;;;;;;;;;5071440;28;20023;-59
2023/09/16 13:12:35;;;;;;;3.58;3.28;;;;;;;;;;5070385;28;20036;-59
2023/09/16 13:15:00;;;;;;;9.70;3.33;;;;;;;;;;5072210;28;20020;-58
2023/09/16 13:17:25;;;;;;;8.67;4.60;;;;;;;;;;5069767;28;20090;-59
2023/09/16 13:19:51;;;;;;;4.67;3.90;;;;;;;;;;5071697;28;20387;-59
2023/09/16 13:22:17;;;;;;;4.43;4.03;;;;;;;;;;5070279;28;20090;-60
2023/09/16 13:24:45;;;;;;;4.70;4.30;;;;;;;;;;5070892;28;20095;-59
2023/09/16 13:27:15;;;;;;;5.75;4.07;;;;;;;;;;5064889;28;20036;-59
2023/09/16 13:29:40;;;;;;;5.40;3.65;;;;;;;;;;5051109;28;20040;-59
2023/09/16 13:32:06;;;;;;;4.95;4.22;;;;;;;;;;5065803;28;20128;-59
2023/09/16 13:34:46;;;;;;;7.35;4.97;;;;;;;;;;5071307;28;20040;-59
2023/09/16 13:37:11;;;;;;;5.70;4.00;;;;;;;;;;5069594;28;20040;-59
2023/09/16 13:39:40;;;;;;;6.00;3.50;;;;;;;;;;5069730;28;20052;-59
2023/09/16 13:42:05;;;;;;;6.93;4.32;;;;;;;;;;5069536;28;20497;-59
2023/09/16 13:44:30;;;;;;;6.40;4.28;;;;;;;;;;5061272;28;20437;-59
2023/09/16 13:46:55;;;;;;;5.37;4.23;;;;;;;;;;5064618;28;20093;-60
2023/09/16 13:49:20;;;;;;;6.23;3.67;;;;;;;;;;5069979;28;20095;-59
2023/09/16 13:51:45;;;;;;;4.30;3.90;;;;;;;;;;5056281;28;20041;-61
2023/09/16 13:54:11;;;;;;;7.55;4.13;;;;;;;;;;5050003;28;20055;-59
2023/09/16 13:56:37;;;;;;;7.25;4.10;;;;;;;;;;5052552;28;20041;-58
2023/09/16 13:59:02;;;;;;;7.20;4.47;;;;;;;;;;5049761;28;20524;-59
2023/09/16 14:01:27;;;;;;;7.20;4.63;;;;;;;;;;5047613;28;20055;-58
2023/09/16 14:03:52;;;;;;;5.53;4.07;;;;;;;;;;5048839;28;20434;-59
2023/09/16 14:06:17;;;;;;;6.43;5.03;;;;;;;;;;5048401;28;20029;-59
2023/09/16 14:08:42;;;;;;;5.97;4.55;;;;;;;;;;5050611;28;20020;-59
2023/09/16 14:11:08;;;;;;;4.17;3.60;;;;;;;;;;5042761;28;20250;-58
2023/09/16 14:13:33;;;;;;;35.67;5.23;;;;;;;;;;5050905;28;20366;-59
2023/09/16 14:15:58;;;;;;;8.55;4.57;;;;;;;;;;5049334;28;20120;-58
2023/09/16 14:18:23;;;;;;;7.93;4.60;;;;;;;;;;5050124;28;20384;-58
2023/09/16 14:20:50;;;;;;;6.63;4.03;;;;;;;;;;5055041;28;20349;-63
2023/09/16 14:23:15;;;;;;;7.00;4.22;;;;;;;;;;5070633;28;20464;-59
2023/09/16 14:25:41;;;;;;;8.30;5.30;;;;;;;;;;5068210;28;20044;-58